Tucker, Arkansas
Current Conditions -  °F | °C
As of 11:53 AM on Monday 26 Jan 2015 (Local Time) from KPBF Reporting Station
Clear Clear  
Wind Chill: 46°   Ceiling: Unl
Heat Index: 49°   Visibility: 10mi
Dew Point: 31°   Wind: 7mph
Humidity: 50%   Direction: NA
Pressure: 30.13"   Gusts: NA
Location:  34.44°N, 91.95°W
Report Text: KPBF 261753Z AUTO VRB06KT 10SM CLR 09/M01 A3013 RMK AO2 PRESFR SLP203 T00941006 10094 20000 58011
Loading
Personal Weather Stations






























Interactive Weather Map New forecast layout! Learn more

10-Day Weather Forecast

Advertisements
Track Severe Weather on mobile